sensor_id;sensor_type;location;lat;lon;timestamp;pressure;altitude;pressure_sealevel;temperature;humidity
68320;BME280;55168;51.120;17.024;2023-08-08T00:00:00;99730;;;13.8;100.0
68320;BME280;55168;51.120;17.024;2023-08-08T00:01:00;99730;;;13.9;100.0
68320;BME280;55168;51.120;17.024;2023-08-08T00:02:00;99740;;;13.9;100.0
68320;BME280;55168;51.120;17.024;2023-08-08T00:03:00;99740;;;13.9;100.0
68320;BME280;55168;51.120;17.024;2023-08-08T00:04:00;99730;;;13.9;100.0
68320;BME280;55168;51.120;17.024;2023-08-08T00:05:00;99740;;;13.9;100.0
68320;BME280;55168;51.120;17.024;2023-08-08T00:06:00;99740;;;13.9;100.0
68320;BME280;55168;51.120;17.024;2023-08-08T00:07:00;99730;;;13.9;100.0
68320;BME280;55168;51.120;17.024;2023-08-08T00:08:00;99730;;;13.9;100.0
68320;BME280;55168;51.120;17.024;2023-08-08T00:09:00;99730;;;13.9;100.0
68320;BME280;55168;51.120;17.024;2023-08-08T00:10:00;99730;;;14.0;100.0
68320;BME280;55168;51.120;17.024;2023-08-08T00:11:00;99740;;;14.0;100.0
68320;BME280;55168;51.120;17.024;2023-08-08T00:12:00;99730;;;14.0;100.0
68320;BME280;55168;51.120;17.024;2023-08-08T00:13:00;99730;;;14.0;100.0
68320;BME280;55168;51.120;17.024;2023-08-08T00:14:00;99730;;;14.0;100.0
68320;BME280;55168;51.120;17.024;2023-08-08T00:15:00;99740;;;14.0;100.0
68320;BME280;55168;51.120;17.024;2023-08-08T00:16:00;99740;;;14.0;100.0
68320;BME280;55168;51.120;17.024;2023-08-08T00:17:00;99740;;;14.0;100.0
68320;BME280;55168;51.120;17.024;2023-08-08T00:18:00;99740;;;14.0;100.0
68320;BME280;55168;51.120;17.024;2023-08-08T00:19:00;99740;;;14.1;100.0
68320;BME280;55168;51.120;17.024;2023-08-08T00:20:00;99750;;;14.1;100.0
68320;BME280;55168;51.120;17.024;2023-08-08T00:21:00;99740;;;14.1;100.0
68320;BME280;55168;51.120;17.024;2023-08-08T00:22:00;99740;;;14.1;100.0
68320;BME280;55168;51.120;17.024;2023-08-08T00:23:00;99740;;;14.1;100.0
68320;BME280;55168;51.120;17.024;2023-08-08T00:24:00;99740;;;14.1;100.0
68320;BME280;55168;51.120;17.024;2023-08-08T00:25:00;99740;;;14.1;100.0
68320;BME280;55168;51.120;17.024;2023-08-08T00:26:00;99740;;;14.1;100.0
68320;BME280;55168;51.120;17.024;2023-08-08T00:27:00;99740;;;14.1;100.0
68320;BME280;55168;51.120;17.024;2023-08-08T00:28:00;99740;;;14.1;100.0
68320;BME280;55168;51.120;17.024;2023-08-08T00:29:00;99740;;;14.1;100.0
68320;BME280;55168;51.120;17.024;2023-08-08T00:30:00;99730;;;14.1;100.0
68320;BME280;55168;51.120;17.024;2023-08-08T00:31:00;99740;;;14.1;100.0
68320;BME280;55168;51.120;17.024;2023-08-08T00:32:00;99730;;;14.1;100.0
68320;BME280;55168;51.120;17.024;2023-08-08T00:33:00;99730;;;14.1;100.0
68320;BME280;55168;51.120;17.024;2023-08-08T00:34:00;99740;;;14.1;100.0
68320;BME280;55168;51.120;17.024;2023-08-08T00:35:00;99730;;;14.1;100.0
68320;BME280;55168;51.120;17.024;2023-08-08T00:36:00;99740;;;14.1;100.0
68320;BME280;55168;51.120;17.024;2023-08-08T00:37:00;99740;;;14.1;100.0
68320;BME280;55168;51.120;17.024;2023-08-08T00:38:00;99740;;;14.1;100.0
68320;BME280;55168;51.120;17.024;2023-08-08T00:39:00;99740;;;14.1;100.0
68320;BME280;55168;51.120;17.024;2023-08-08T00:40:00;99740;;;14.1;100.0
68320;BME280;55168;51.120;17.024;2023-08-08T00:41:00;99730;;;14.1;100.0
68320;BME280;55168;51.120;17.024;2023-08-08T00:42:00;99730;;;14.1;100.0
68320;BME280;55168;51.120;17.024;2023-08-08T00:43:00;99740;;;14.1;100.0
68320;BME280;55168;51.120;17.024;2023-08-08T00:44:00;99730;;;14.1;100.0
68320;BME280;55168;51.120;17.024;2023-08-08T00:45:00;99740;;;14.1;100.0
68320;BME280;55168;51.120;17.024;2023-08-08T00:46:00;99740;;;14.1;100.0
68320;BME280;55168;51.120;17.024;2023-08-08T00:47:00;99740;;;14.1;100.0
68320;BME280;55168;51.120;17.024;2023-08-08T00:48:00;99740;;;14.1;100.0
68320;BME280;55168;51.120;17.024;2023-08-08T00:49:00;99740;;;14.1;100.0
68320;BME280;55168;51.120;17.024;2023-08-08T00:50:00;99750;;;14.1;100.0
68320;BME280;55168;51.120;17.024;2023-08-08T00:51:00;99750;;;14.1;100.0
68320;BME280;55168;51.120;17.024;2023-08-08T00:52:00;99740;;;14.2;100.0
68320;BME280;55168;51.120;17.024;2023-08-08T00:53:00;99740;;;14.1;100.0
68320;BME280;55168;51.120;17.024;2023-08-08T00:54:00;99750;;;14.1;100.0
68320;BME280;55168;51.120;17.024;2023-08-08T00:55:00;99750;;;14.1;100.0
68320;BME280;55168;51.120;17.024;2023-08-08T00:56:00;99750;;;14.1;100.0
68320;BME280;55168;51.120;17.024;2023-08-08T00:57:00;99750;;;14.1;100.0
68320;BME280;55168;51.120;17.024;2023-08-08T00:58:00;99750;;;14.1;100.0
68320;BME280;55168;51.120;17.024;2023-08-08T00:59:00;99750;;;14.1;100.0
68320;BME280;55168;51.120;17.024;2023-08-08T01:00:00;99750;;;14.1;100.0
68320;BME280;55168;51.120;17.024;2023-08-08T01:01:00;99750;;;14.1;100.0
68320;BME280;55168;51.120;17.024;2023-08-08T01:02:00;99750;;;14.1;100.0
68320;BME280;55168;51.120;17.024;2023-08-08T01:03:00;99750;;;14.1;100.0
68320;BME280;55168;51.120;17.024;2023-08-08T01:04:00;99750;;;14.0;100.0
68320;BME280;55168;51.120;17.024;2023-08-08T01:05:00;99750;;;14.0;100.0
68320;BME280;55168;51.120;17.024;2023-08-08T01:06:08;99750;;;14.0;100.0
68320;BME280;55168;51.120;17.024;2023-08-08T01:08:07;99750;;;14.0;100.0
68320;BME280;55168;51.120;17.024;2023-08-08T01:09:07;99750;;;14.0;100.0
68320;BME280;55168;51.120;17.024;2023-08-08T01:11:00;99750;;;13.9;100.0
68320;BME280;55168;51.120;17.024;2023-08-08T01:12:00;99750;;;13.9;100.0
68320;BME280;55168;51.120;17.024;2023-08-08T01:13:00;99750;;;13.9;100.0
68320;BME280;55168;51.120;17.024;2023-08-08T01:14:00;99750;;;13.9;100.0
68320;BME280;55168;51.120;17.024;2023-08-08T01:15:00;99750;;;13.8;100.0
68320;BME280;55168;51.120;17.024;2023-08-08T01:16:00;99750;;;13.8;100.0
68320;BME280;55168;51.120;17.024;2023-08-08T01:17:00;99750;;;13.8;100.0
68320;BME280;55168;51.120;17.024;2023-08-08T01:18:00;99750;;;13.7;100.0
68320;BME280;55168;51.120;17.024;2023-08-08T01:19:00;99750;;;13.7;100.0
68320;BME280;55168;51.120;17.024;2023-08-08T01:20:00;99750;;;13.6;100.0
68320;BME280;55168;51.120;17.024;2023-08-08T01:21:00;99750;;;13.6;100.0
68320;BME280;55168;51.120;17.024;2023-08-08T01:22:02;99760;;;13.6;100.0
68320;BME280;55168;51.120;17.024;2023-08-08T01:23:08;99760;;;13.5;100.0
68320;BME280;55168;51.120;17.024;2023-08-08T01:25:00;99760;;;13.5;100.0
68320;BME280;55168;51.120;17.024;2023-08-08T01:26:00;99760;;;13.5;100.0
68320;BME280;55168;51.120;17.024;2023-08-08T01:27:00;99760;;;13.5;100.0
68320;BME280;55168;51.120;17.024;2023-08-08T01:28:00;99760;;;13.5;100.0
68320;BME280;55168;51.120;17.024;2023-08-08T01:29:00;99760;;;13.4;100.0
68320;BME280;55168;51.120;17.024;2023-08-08T01:30:00;99760;;;13.4;100.0
68320;BME280;55168;51.120;17.024;2023-08-08T01:31:00;99760;;;13.4;100.0
68320;BME280;55168;51.120;17.024;2023-08-08T01:32:00;99760;;;13.4;100.0
68320;BME280;55168;51.120;17.024;2023-08-08T01:33:00;99770;;;13.4;100.0
68320;BME280;55168;51.120;17.024;2023-08-08T01:34:00;99770;;;13.4;100.0
68320;BME280;55168;51.120;17.024;2023-08-08T01:35:00;99770;;;13.4;100.0
68320;BME280;55168;51.120;17.024;2023-08-08T01:36:02;99760;;;13.3;100.0
68320;BME280;55168;51.120;17.024;2023-08-08T01:37:18;99770;;;13.3;100.0
68320;BME280;55168;51.120;17.024;2023-08-08T01:38:04;99760;;;13.3;100.0
68320;BME280;55168;51.120;17.024;2023-08-08T01:39:00;99760;;;13.2;100.0
68320;BME280;55168;51.120;17.024;2023-08-08T01:40:00;99760;;;13.2;100.0
68320;BME280;55168;51.120;17.024;2023-08-08T01:41:00;99760;;;13.2;100.0
68320;BME280;55168;51.120;17.024;2023-08-08T01:42:00;99760;;;13.1;100.0
68320;BME280;55168;51.120;17.024;2023-08-08T01:43:00;99760;;;13.1;100.0
68320;BME280;55168;51.120;17.024;2023-08-08T01:44:00;99760;;;13.1;100.0
68320;BME280;55168;51.120;17.024;2023-08-08T01:45:00;99760;;;13.1;100.0
68320;BME280;55168;51.120;17.024;2023-08-08T01:46:00;99750;;;13.1;100.0
68320;BME280;55168;51.120;17.024;2023-08-08T01:47:00;99750;;;13.1;100.0
68320;BME280;55168;51.120;17.024;2023-08-08T01:48:00;99750;;;13.1;100.0
68320;BME280;55168;51.120;17.024;2023-08-08T01:49:00;99750;;;13.1;100.0
68320;BME280;55168;51.120;17.024;2023-08-08T01:50:00;99750;;;13.1;100.0
68320;BME280;55168;51.120;17.024;2023-08-08T01:51:00;99750;;;13.1;100.0
68320;BME280;55168;51.120;17.024;2023-08-08T01:52:00;99750;;;13.0;100.0
68320;BME280;55168;51.120;17.024;2023-08-08T01:53:00;99750;;;13.0;100.0
68320;BME280;55168;51.120;17.024;2023-08-08T01:54:00;99750;;;13.0;100.0
68320;BME280;55168;51.120;17.024;2023-08-08T01:55:00;99750;;;13.0;100.0
68320;BME280;55168;51.120;17.024;2023-08-08T01:56:00;99750;;;13.0;100.0
68320;BME280;55168;51.120;17.024;2023-08-08T01:57:00;99750;;;12.9;100.0
68320;BME280;55168;51.120;17.024;2023-08-08T01:58:00;99750;;;12.9;100.0
68320;BME280;55168;51.120;17.024;2023-08-08T01:59:00;99750;;;12.9;100.0
68320;BME280;55168;51.120;17.024;2023-08-08T02:00:00;99750;;;12.9;100.0
68320;BME280;55168;51.120;17.024;2023-08-08T02:01:00;99750;;;12.9;100.0
68320;BME280;55168;51.120;17.024;2023-08-08T02:02:00;99750;;;12.9;100.0
68320;BME280;55168;51.120;17.024;2023-08-08T02:03:00;99760;;;12.8;100.0
68320;BME280;55168;51.120;17.024;2023-08-08T02:04:00;99750;;;12.8;100.0
68320;BME280;55168;51.120;17.024;2023-08-08T02:05:00;99750;;;12.8;100.0
68320;BME280;55168;51.120;17.024;2023-08-08T02:06:00;99750;;;12.8;100.0
68320;BME280;55168;51.120;17.024;2023-08-08T02:07:00;99750;;;12.8;100.0
68320;BME280;55168;51.120;17.024;2023-08-08T02:08:00;99760;;;12.8;100.0
68320;BME280;55168;51.120;17.024;2023-08-08T02:09:00;99760;;;12.8;100.0
68320;BME280;55168;51.120;17.024;2023-08-08T02:10:00;99760;;;12.8;100.0
68320;BME280;55168;51.120;17.024;2023-08-08T02:11:00;99750;;;12.7;100.0
68320;BME280;55168;51.120;17.024;2023-08-08T02:12:00;99760;;;12.7;100.0
68320;BME280;55168;51.120;17.024;2023-08-08T02:13:00;99750;;;12.7;100.0
68320;BME280;55168;51.120;17.024;2023-08-08T02:14:00;99760;;;12.6;100.0
68320;BME280;55168;51.120;17.024;2023-08-08T02:15:00;99760;;;12.6;100.0
68320;BME280;55168;51.120;17.024;2023-08-08T02:16:00;99760;;;12.6;100.0
68320;BME280;55168;51.120;17.024;2023-08-08T02:17:00;99760;;;12.6;100.0
68320;BME280;55168;51.120;17.024;2023-08-08T02:18:00;99760;;;12.6;100.0
68320;BME280;55168;51.120;17.024;2023-08-08T02:19:00;99770;;;12.6;100.0
68320;BME280;55168;51.120;17.024;2023-08-08T02:20:00;99770;;;12.6;100.0
68320;BME280;55168;51.120;17.024;2023-08-08T02:21:00;99760;;;12.6;100.0
68320;BME280;55168;51.120;17.024;2023-08-08T02:22:00;99770;;;12.6;100.0
68320;BME280;55168;51.120;17.024;2023-08-08T02:23:00;99770;;;12.6;100.0
68320;BME280;55168;51.120;17.024;2023-08-08T02:24:00;99770;;;12.6;100.0
68320;BME280;55168;51.120;17.024;2023-08-08T02:25:00;99770;;;12.6;100.0
68320;BME280;55168;51.120;17.024;2023-08-08T02:26:00;99770;;;12.6;100.0
68320;BME280;55168;51.120;17.024;2023-08-08T02:27:00;99760;;;12.6;100.0
68320;BME280;55168;51.120;17.024;2023-08-08T02:28:00;99760;;;12.5;100.0
68320;BME280;55168;51.120;17.024;2023-08-08T02:29:00;99760;;;12.5;100.0
68320;BME280;55168;51.120;17.024;2023-08-08T02:30:00;99770;;;12.5;100.0
68320;BME280;55168;51.120;17.024;2023-08-08T02:31:00;99770;;;12.5;100.0
68320;BME280;55168;51.120;17.024;2023-08-08T02:32:00;99760;;;12.5;100.0
68320;BME280;55168;51.120;17.024;2023-08-08T02:33:00;99760;;;12.4;100.0
68320;BME280;55168;51.120;17.024;2023-08-08T02:34:00;99770;;;12.4;100.0
68320;BME280;55168;51.120;17.024;2023-08-08T02:35:00;99760;;;12.4;100.0
68320;BME280;55168;51.120;17.024;2023-08-08T02:36:00;99760;;;12.4;100.0
68320;BME280;55168;51.120;17.024;2023-08-08T02:37:00;99760;;;12.4;100.0
68320;BME280;55168;51.120;17.024;2023-08-08T02:38:00;99760;;;12.4;100.0
68320;BME280;55168;51.120;17.024;2023-08-08T02:39:00;99760;;;12.4;100.0
68320;BME280;55168;51.120;17.024;2023-08-08T02:40:00;99760;;;12.4;100.0
68320;BME280;55168;51.120;17.024;2023-08-08T02:41:00;99760;;;12.4;100.0
68320;BME280;55168;51.120;17.024;2023-08-08T02:42:00;99760;;;12.4;100.0
68320;BME280;55168;51.120;17.024;2023-08-08T02:43:00;99760;;;12.4;100.0
68320;BME280;55168;51.120;17.024;2023-08-08T02:44:00;99760;;;12.4;100.0
68320;BME280;55168;51.120;17.024;2023-08-08T02:45:00;99760;;;12.3;100.0
68320;BME280;55168;51.120;17.024;2023-08-08T02:46:00;99770;;;12.4;100.0
68320;BME280;55168;51.120;17.024;2023-08-08T02:47:00;99770;;;12.3;100.0
68320;BME280;55168;51.120;17.024;2023-08-08T02:48:00;99770;;;12.3;100.0
68320;BME280;55168;51.120;17.024;2023-08-08T02:49:00;99770;;;12.4;100.0
68320;BME280;55168;51.120;17.024;2023-08-08T02:50:00;99770;;;12.4;100.0
68320;BME280;55168;51.120;17.024;2023-08-08T02:51:00;99770;;;12.3;100.0
68320;BME280;55168;51.120;17.024;2023-08-08T02:52:00;99770;;;12.3;100.0
68320;BME280;55168;51.120;17.024;2023-08-08T02:53:00;99770;;;12.3;100.0
68320;BME280;55168;51.120;17.024;2023-08-08T02:54:00;99770;;;12.3;100.0
68320;BME280;55168;51.120;17.024;2023-08-08T02:55:00;99770;;;12.3;100.0
68320;BME280;55168;51.120;17.024;2023-08-08T02:56:00;99780;;;12.3;100.0
68320;BME280;55168;51.120;17.024;2023-08-08T02:57:00;99770;;;12.3;100.0
68320;BME280;55168;51.120;17.024;2023-08-08T02:58:00;99780;;;12.3;100.0
68320;BME280;55168;51.120;17.024;2023-08-08T02:59:00;99780;;;12.3;100.0
68320;BME280;55168;51.120;17.024;2023-08-08T03:00:00;99780;;;12.3;100.0
68320;BME280;55168;51.120;17.024;2023-08-08T03:01:00;99780;;;12.2;100.0
68320;BME280;55168;51.120;17.024;2023-08-08T03:02:00;99780;;;12.2;100.0
68320;BME280;55168;51.120;17.024;2023-08-08T03:03:00;99780;;;12.2;100.0
68320;BME280;55168;51.120;17.024;2023-08-08T03:04:00;99790;;;12.2;100.0
68320;BME280;55168;51.120;17.024;2023-08-08T03:05:00;99790;;;12.2;100.0
68320;BME280;55168;51.120;17.024;2023-08-08T03:06:00;99790;;;12.2;100.0
68320;BME280;55168;51.120;17.024;2023-08-08T03:07:00;99790;;;12.2;100.0
68320;BME280;55168;51.120;17.024;2023-08-08T03:08:00;99790;;;12.1;100.0
68320;BME280;55168;51.120;17.024;2023-08-08T03:09:00;99790;;;12.1;100.0
68320;BME280;55168;51.120;17.024;2023-08-08T03:10:00;99800;;;12.1;100.0
68320;BME280;55168;51.120;17.024;2023-08-08T03:11:00;99800;;;12.1;100.0
68320;BME280;55168;51.120;17.024;2023-08-08T03:12:00;99800;;;12.1;100.0
68320;BME280;55168;51.120;17.024;2023-08-08T03:13:00;99800;;;12.2;100.0
68320;BME280;55168;51.120;17.024;2023-08-08T03:14:00;99800;;;12.1;100.0
68320;BME280;55168;51.120;17.024;2023-08-08T03:15:00;99800;;;12.1;100.0
68320;BME280;55168;51.120;17.024;2023-08-08T03:16:00;99800;;;12.1;100.0
68320;BME280;55168;51.120;17.024;2023-08-08T03:17:00;99800;;;12.1;100.0
68320;BME280;55168;51.120;17.024;2023-08-08T03:18:00;99800;;;12.0;100.0
68320;BME280;55168;51.120;17.024;2023-08-08T03:19:00;99800;;;12.0;100.0
68320;BME280;55168;51.120;17.024;2023-08-08T03:20:00;99800;;;12.0;100.0
68320;BME280;55168;51.120;17.024;2023-08-08T03:21:00;99800;;;12.1;100.0
68320;BME280;55168;51.120;17.024;2023-08-08T03:22:00;99800;;;12.0;100.0
68320;BME280;55168;51.120;17.024;2023-08-08T03:23:00;99800;;;12.0;100.0
68320;BME280;55168;51.120;17.024;2023-08-08T03:24:00;99800;;;12.0;100.0
68320;BME280;55168;51.120;17.024;2023-08-08T03:25:00;99810;;;12.0;100.0
68320;BME280;55168;51.120;17.024;2023-08-08T03:26:00;99800;;;12.0;100.0
68320;BME280;55168;51.120;17.024;2023-08-08T03:27:00;99800;;;12.0;100.0
68320;BME280;55168;51.120;17.024;2023-08-08T03:28:00;99800;;;12.0;100.0
68320;BME280;55168;51.120;17.024;2023-08-08T03:29:00;99800;;;12.0;100.0
68320;BME280;55168;51.120;17.024;2023-08-08T03:30:00;99800;;;12.0;100.0
68320;BME280;55168;51.120;17.024;2023-08-08T03:31:00;99800;;;12.0;100.0
68320;BME280;55168;51.120;17.024;2023-08-08T03:32:00;99800;;;12.0;100.0
68320;BME280;55168;51.120;17.024;2023-08-08T03:33:00;99800;;;12.0;100.0
68320;BME280;55168;51.120;17.024;2023-08-08T03:34:00;99810;;;12.0;100.0
68320;BME280;55168;51.120;17.024;2023-08-08T03:35:00;99810;;;12.0;100.0
68320;BME280;55168;51.120;17.024;2023-08-08T03:36:00;99810;;;12.0;100.0
68320;BME280;55168;51.120;17.024;2023-08-08T03:37:00;99810;;;11.9;100.0
68320;BME280;55168;51.120;17.024;2023-08-08T03:38:00;99810;;;11.9;100.0
68320;BME280;55168;51.120;17.024;2023-08-08T03:39:00;99800;;;11.9;100.0
68320;BME280;55168;51.120;17.024;2023-08-08T03:40:00;99810;;;11.9;100.0
68320;BME280;55168;51.120;17.024;2023-08-08T03:41:00;99800;;;11.9;100.0
68320;BME280;55168;51.120;17.024;2023-08-08T03:42:00;99810;;;11.9;100.0
68320;BME280;55168;51.120;17.024;2023-08-08T03:43:00;99800;;;11.9;100.0
68320;BME280;55168;51.120;17.024;2023-08-08T03:44:00;99810;;;11.9;100.0
68320;BME280;55168;51.120;17.024;2023-08-08T03:45:00;99810;;;11.9;100.0
68320;BME280;55168;51.120;17.024;2023-08-08T03:46:00;99810;;;11.9;100.0
68320;BME280;55168;51.120;17.024;2023-08-08T03:47:00;99810;;;11.9;100.0
68320;BME280;55168;51.120;17.024;2023-08-08T03:48:00;99820;;;11.9;100.0
68320;BME280;55168;51.120;17.024;2023-08-08T03:49:00;99820;;;11.9;100.0
68320;BME280;55168;51.120;17.024;2023-08-08T03:50:00;99820;;;11.9;100.0
68320;BME280;55168;51.120;17.024;2023-08-08T03:51:00;99820;;;11.9;100.0
68320;BME280;55168;51.120;17.024;2023-08-08T03:52:00;99820;;;11.9;100.0
68320;BME280;55168;51.120;17.024;2023-08-08T03:53:00;99820;;;11.9;100.0
68320;BME280;55168;51.120;17.024;2023-08-08T03:54:00;99820;;;11.9;100.0
68320;BME280;55168;51.120;17.024;2023-08-08T03:55:00;99830;;;11.9;100.0
68320;BME280;55168;51.120;17.024;2023-08-08T03:56:00;99820;;;11.9;100.0
68320;BME280;55168;51.120;17.024;2023-08-08T03:57:00;99820;;;11.9;100.0
68320;BME280;55168;51.120;17.024;2023-08-08T03:58:00;99830;;;11.9;100.0
68320;BME280;55168;51.120;17.024;2023-08-08T03:59:00;99830;;;12.0;100.0
68320;BME280;55168;51.120;17.024;2023-08-08T04:00:00;99830;;;12.0;100.0
68320;BME280;55168;51.120;17.024;2023-08-08T04:01:00;99830;;;12.0;100.0
68320;BME280;55168;51.120;17.024;2023-08-08T04:02:00;99830;;;12.0;100.0
68320;BME280;55168;51.120;17.024;2023-08-08T04:03:00;99830;;;12.0;100.0
68320;BME280;55168;51.120;17.024;2023-08-08T04:04:00;99830;;;12.0;100.0
68320;BME280;55168;51.120;17.024;2023-08-08T04:05:00;99830;;;12.0;100.0
68320;BME280;55168;51.120;17.024;2023-08-08T04:06:00;99830;;;12.0;100.0
68320;BME280;55168;51.120;17.024;2023-08-08T04:07:00;99830;;;12.1;100.0
68320;BME280;55168;51.120;17.024;2023-08-08T04:08:00;99830;;;12.1;100.0
68320;BME280;55168;51.120;17.024;2023-08-08T04:09:00;99830;;;12.1;100.0
68320;BME280;55168;51.120;17.024;2023-08-08T04:10:00;99830;;;12.1;100.0
68320;BME280;55168;51.120;17.024;2023-08-08T04:11:00;99830;;;12.1;100.0
68320;BME280;55168;51.120;17.024;2023-08-08T04:12:00;99830;;;12.2;100.0
68320;BME280;55168;51.120;17.024;2023-08-08T04:13:00;99840;;;12.2;100.0
68320;BME280;55168;51.120;17.024;2023-08-08T04:14:00;99830;;;12.2;100.0
68320;BME280;55168;51.120;17.024;2023-08-08T04:15:00;99840;;;12.2;100.0
68320;BME280;55168;51.120;17.024;2023-08-08T04:16:00;99840;;;12.3;100.0
68320;BME280;55168;51.120;17.024;2023-08-08T04:17:00;99840;;;12.3;100.0
68320;BME280;55168;51.120;17.024;2023-08-08T04:18:00;99840;;;12.3;100.0
68320;BME280;55168;51.120;17.024;2023-08-08T04:19:00;99840;;;12.3;100.0
68320;BME280;55168;51.120;17.024;2023-08-08T04:20:00;99840;;;12.4;100.0
68320;BME280;55168;51.120;17.024;2023-08-08T04:21:00;99840;;;12.4;100.0
68320;BME280;55168;51.120;17.024;2023-08-08T04:22:00;99830;;;12.4;100.0
68320;BME280;55168;51.120;17.024;2023-08-08T04:23:00;99840;;;12.4;100.0
68320;BME280;55168;51.120;17.024;2023-08-08T04:24:00;99840;;;12.5;100.0
68320;BME280;55168;51.120;17.024;2023-08-08T04:25:00;99840;;;12.5;100.0
68320;BME280;55168;51.120;17.024;2023-08-08T04:26:00;99840;;;12.6;100.0
68320;BME280;55168;51.120;17.024;2023-08-08T04:27:00;99840;;;12.6;100.0
68320;BME280;55168;51.120;17.024;2023-08-08T04:28:00;99840;;;12.7;100.0
68320;BME280;55168;51.120;17.024;2023-08-08T04:29:00;99840;;;12.7;100.0
68320;BME280;55168;51.120;17.024;2023-08-08T04:30:00;99850;;;12.8;100.0
68320;BME280;55168;51.120;17.024;2023-08-08T04:31:00;99850;;;12.8;100.0
68320;BME280;55168;51.120;17.024;2023-08-08T04:32:00;99850;;;12.9;100.0
68320;BME280;55168;51.120;17.024;2023-08-08T04:33:00;99850;;;13.0;100.0
68320;BME280;55168;51.120;17.024;2023-08-08T04:34:00;99850;;;13.1;100.0
68320;BME280;55168;51.120;17.024;2023-08-08T04:35:00;99850;;;13.1;100.0
68320;BME280;55168;51.120;17.024;2023-08-08T04:36:00;99850;;;13.2;100.0
68320;BME280;55168;51.120;17.024;2023-08-08T04:37:00;99850;;;13.3;100.0
68320;BME280;55168;51.120;17.024;2023-08-08T04:38:00;99850;;;13.4;100.0
68320;BME280;55168;51.120;17.024;2023-08-08T04:39:00;99840;;;13.4;100.0
68320;BME280;55168;51.120;17.024;2023-08-08T04:40:00;99850;;;13.5;100.0
68320;BME280;55168;51.120;17.024;2023-08-08T04:41:00;99850;;;13.5;100.0
68320;BME280;55168;51.120;17.024;2023-08-08T04:42:00;99850;;;13.7;100.0
68320;BME280;55168;51.120;17.024;2023-08-08T04:43:00;99840;;;13.7;100.0
68320;BME280;55168;51.120;17.024;2023-08-08T04:44:00;99850;;;13.7;100.0
68320;BME280;55168;51.120;17.024;2023-08-08T04:45:00;99850;;;13.7;100.0
68320;BME280;55168;51.120;17.024;2023-08-08T04:46:00;99840;;;13.7;100.0
68320;BME280;55168;51.120;17.024;2023-08-08T04:47:00;99840;;;13.8;100.0
68320;BME280;55168;51.120;17.024;2023-08-08T04:48:00;99840;;;13.8;100.0
68320;BME280;55168;51.120;17.024;2023-08-08T04:49:00;99840;;;13.9;100.0
68320;BME280;55168;51.120;17.024;2023-08-08T04:50:00;99840;;;14.0;100.0
68320;BME280;55168;51.120;17.024;2023-08-08T04:51:00;99850;;;14.2;100.0
68320;BME280;55168;51.120;17.024;2023-08-08T04:52:00;99850;;;14.5;100.0
68320;BME280;55168;51.120;17.024;2023-08-08T04:53:00;99850;;;14.8;100.0
68320;BME280;55168;51.120;17.024;2023-08-08T04:54:00;99840;;;14.9;100.0
68320;BME280;55168;51.120;17.024;2023-08-08T04:55:00;99840;;;15.1;100.0
68320;BME280;55168;51.120;17.024;2023-08-08T04:56:00;99840;;;15.3;100.0
68320;BME280;55168;51.120;17.024;2023-08-08T04:57:00;99840;;;15.5;100.0
68320;BME280;55168;51.120;17.024;2023-08-08T04:58:00;99840;;;15.7;100.0
68320;BME280;55168;51.120;17.024;2023-08-08T04:59:00;99840;;;15.9;100.0
68320;BME280;55168;51.120;17.024;2023-08-08T05:00:00;99840;;;16.0;100.0
68320;BME280;55168;51.120;17.024;2023-08-08T05:01:00;99840;;;16.0;100.0
68320;BME280;55168;51.120;17.024;2023-08-08T05:02:00;99840;;;16.0;100.0
68320;BME280;55168;51.120;17.024;2023-08-08T05:03:00;99850;;;16.0;100.0
68320;BME280;55168;51.120;17.024;2023-08-08T05:04:00;99850;;;16.1;100.0
68320;BME280;55168;51.120;17.024;2023-08-08T05:05:00;99850;;;16.2;100.0
68320;BME280;55168;51.120;17.024;2023-08-08T05:06:00;99850;;;16.2;100.0
68320;BME280;55168;51.120;17.024;2023-08-08T05:07:00;99850;;;16.2;100.0
68320;BME280;55168;51.120;17.024;2023-08-08T05:08:00;99850;;;16.2;100.0
68320;BME280;55168;51.120;17.024;2023-08-08T05:09:00;99850;;;16.2;100.0
68320;BME280;55168;51.120;17.024;2023-08-08T05:10:00;99850;;;16.3;100.0
68320;BME280;55168;51.120;17.024;2023-08-08T05:11:00;99850;;;16.3;100.0
68320;BME280;55168;51.120;17.024;2023-08-08T05:12:00;99850;;;16.4;100.0
68320;BME280;55168;51.120;17.024;2023-08-08T05:13:00;99850;;;16.5;100.0
68320;BME280;55168;51.120;17.024;2023-08-08T05:14:00;99850;;;16.6;100.0
68320;BME280;55168;51.120;17.024;2023-08-08T05:15:00;99850;;;16.6;100.0
68320;BME280;55168;51.120;17.024;2023-08-08T05:16:00;99860;;;16.6;100.0
68320;BME280;55168;51.120;17.024;2023-08-08T05:17:01;99850;;;16.6;100.0
68320;BME280;55168;51.120;17.024;2023-08-08T05:18:00;99850;;;16.6;100.0
68320;BME280;55168;51.120;17.024;2023-08-08T05:19:00;99850;;;16.4;100.0
68320;BME280;55168;51.120;17.024;2023-08-08T05:20:00;99850;;;16.5;100.0
68320;BME280;55168;51.120;17.024;2023-08-08T05:21:00;99850;;;16.5;100.0
68320;BME280;55168;51.120;17.024;2023-08-08T05:22:00;99850;;;16.5;100.0
68320;BME280;55168;51.120;17.024;2023-08-08T05:23:00;99850;;;16.3;100.0
68320;BME280;55168;51.120;17.024;2023-08-08T05:24:00;99860;;;16.0;100.0
68320;BME280;55168;51.120;17.024;2023-08-08T05:25:00;99860;;;15.8;100.0
68320;BME280;55168;51.120;17.024;2023-08-08T05:26:00;99860;;;15.6;100.0
68320;BME280;55168;51.120;17.024;2023-08-08T05:27:00;99860;;;15.5;100.0
68320;BME280;55168;51.120;17.024;2023-08-08T05:28:00;99860;;;15.6;100.0
68320;BME280;55168;51.120;17.024;2023-08-08T05:29:00;99860;;;15.6;100.0
68320;BME280;55168;51.120;17.024;2023-08-08T05:30:00;99860;;;15.7;100.0
68320;BME280;55168;51.120;17.024;2023-08-08T05:31:00;99860;;;15.4;100.0
68320;BME280;55168;51.120;17.024;2023-08-08T05:32:00;99860;;;15.3;100.0
68320;BME280;55168;51.120;17.024;2023-08-08T05:33:00;99860;;;15.3;100.0